Time;durP1;ratioP1;P1;durP2;ratioP2;P2;SDS_P1;SDS_P2;PMS_P1;PMS_P2;Temp;Humidity;BMP_temperature;BMP_pressure;BME280_temperature;BME280_humidity;BME280_pressure;Samples;Min_cycle;Max_cycle;Signal;HPM_P1;HPM_P2
2023/03/04 00:00:52;;;;;;;;;;;6.50;99.90;;;;;;5055007;28;19909;-53
2023/03/04 00:03:18;;;;;;;;;;;6.50;99.90;;;;;;5054912;28;20020;-52
2023/03/04 00:05:43;;;;;;;;;;;6.50;99.90;;;;;;5054189;28;20368;-49
2023/03/04 00:08:09;;;;;;;;;;;6.50;99.90;;;;;;5054713;28;19931;-51
2023/03/04 00:10:34;;;;;;;;;;;6.40;99.90;;;;;;5054721;28;19908;-51
2023/03/04 00:13:00;;;;;;;;;;;6.40;99.90;;;;;;5053859;28;19909;-55
2023/03/04 00:15:25;;;;;;;;;;;6.40;99.90;;;;;;5070606;28;19912;-49
2023/03/04 00:17:51;;;;;;;;;;;6.40;99.90;;;;;;5074606;28;19908;-51
2023/03/04 00:20:16;;;;;;;;;;;6.40;99.90;;;;;;5073299;28;19928;-54
2023/03/04 00:22:42;;;;;;;;;;;6.40;99.90;;;;;;5074437;28;19908;-49
2023/03/04 00:25:07;;;;;;;;;;;6.40;99.90;;;;;;5073949;28;19970;-52
2023/03/04 00:27:33;;;;;;;;;;;6.40;99.90;;;;;;5073597;28;19930;-50
2023/03/04 00:29:58;;;;;;;;;;;6.40;99.90;;;;;;5074342;28;19915;-51
2023/03/04 00:32:24;;;;;;;;;;;6.40;99.90;;;;;;5074472;28;20382;-51
2023/03/04 00:34:49;;;;;;;;;;;6.40;99.90;;;;;;5073012;28;19912;-49
2023/03/04 00:37:15;;;;;;;;;;;6.40;99.90;;;;;;5074105;28;19915;-53
2023/03/04 00:39:40;;;;;;;;;;;6.40;99.90;;;;;;5074379;28;20347;-48
2023/03/04 00:42:05;;;;;;;;;;;6.40;99.90;;;;;;5073350;28;19980;-50
2023/03/04 00:44:31;;;;;;;;;;;6.40;99.90;;;;;;5063785;28;20356;-51
2023/03/04 00:46:56;;;;;;;;;;;6.40;99.90;;;;;;5053989;28;19919;-51
2023/03/04 00:49:22;;;;;;;;;;;6.40;99.90;;;;;;5053119;28;19912;-50
2023/03/04 00:51:47;;;;;;;;;;;6.40;99.90;;;;;;5053753;28;19909;-52
2023/03/04 00:54:13;;;;;;;;;;;6.40;99.90;;;;;;5053842;28;19916;-51
2023/03/04 00:56:38;;;;;;;;;;;6.40;99.90;;;;;;5053052;28;20334;-52
2023/03/04 00:59:04;;;;;;;;;;;6.40;99.90;;;;;;5053625;28;19970;-54
2023/03/04 01:01:29;;;;;;;;;;;6.40;99.90;;;;;;5053812;28;19909;-48
2023/03/04 01:03:55;;;;;;;;;;;6.40;99.90;;;;;;5052740;28;20287;-51
2023/03/04 01:06:20;;;;;;;;;;;6.40;99.90;;;;;;5053427;28;19995;-52
2023/03/04 01:08:46;;;;;;;;;;;6.40;99.90;;;;;;5052767;28;19909;-50
2023/03/04 01:11:11;;;;;;;;;;;6.40;99.90;;;;;;5053334;28;19919;-50
2023/03/04 01:13:37;;;;;;;;;;;6.40;99.90;;;;;;5053476;28;19955;-49
2023/03/04 01:16:03;;;;;;;;;;;6.40;99.90;;;;;;5052806;28;19909;-51
2023/03/04 01:18:29;;;;;;;;;;;6.40;99.90;;;;;;5053510;28;19908;-51
2023/03/04 01:20:55;;;;;;;;;;;6.30;99.90;;;;;;5062056;28;20402;-52
2023/03/04 01:23:21;;;;;;;;;;;6.40;99.90;;;;;;5072521;28;19917;-49
2023/03/04 01:25:46;;;;;;;;;;;6.40;99.90;;;;;;5073499;28;20072;-51
2023/03/04 01:28:12;;;;;;;;;;;6.40;99.90;;;;;;5073343;28;19909;-52
2023/03/04 01:30:37;;;;;;;;;;;6.40;99.90;;;;;;5071811;28;20122;-51
2023/03/04 01:33:03;;;;;;;;;;;6.40;99.90;;;;;;5072883;28;20007;-50
2023/03/04 01:35:28;;;;;;;;;;;6.40;99.90;;;;;;5072816;28;19908;-50
2023/03/04 01:37:53;;;;;;;;;;;6.40;99.90;;;;;;5072253;28;19909;-52
2023/03/04 01:40:19;;;;;;;;;;;6.40;99.90;;;;;;5073034;28;19915;-51
2023/03/04 01:42:45;;;;;;;;;;;6.30;99.90;;;;;;5054013;28;19936;-51
2023/03/04 01:45:12;;;;;;;;;;;6.40;99.90;;;;;;5052039;28;20402;-51
2023/03/04 01:47:38;;;;;;;;;;;6.40;99.90;;;;;;5052999;28;19915;-51
2023/03/04 01:50:06;;;;;;;;;;;6.40;99.90;;;;;;5052859;28;20003;-51
2023/03/04 01:52:31;;;;;;;;;;;6.40;99.90;;;;;;5051976;28;19913;-52
2023/03/04 01:54:57;;;;;;;;;;;6.40;99.90;;;;;;5052827;28;20286;-51
2023/03/04 01:57:23;;;;;;;;;;;6.40;99.90;;;;;;5052806;28;19908;-53
2023/03/04 02:00:08;;;;;;;;;;;6.40;99.90;;;;;;5051795;28;20283;-51
2023/03/04 02:02:33;;;;;;;;;;;6.40;99.90;;;;;;5052674;28;19913;-51
2023/03/04 02:04:58;;;;;;;;;;;6.30;99.90;;;;;;5051811;28;19924;-50
2023/03/04 02:07:24;;;;;;;;;;;6.30;99.90;;;;;;5052669;28;19913;-52
2023/03/04 02:09:49;;;;;;;;;;;6.40;99.90;;;;;;5052688;28;20283;-50
2023/03/04 02:12:15;;;;;;;;;;;6.30;99.90;;;;;;5064710;28;20045;-51
2023/03/04 02:14:40;;;;;;;;;;;6.30;99.90;;;;;;5072490;28;19920;-52
2023/03/04 02:17:12;;;;;;;;;;;6.30;99.90;;;;;;5072842;28;19913;-51
2023/03/04 02:19:43;;;;;;;;;;;6.40;99.90;;;;;;5072133;28;19915;-51
2023/03/04 02:22:09;;;;;;;;;;;6.30;99.90;;;;;;5072215;28;20279;-50
2023/03/04 02:24:39;;;;;;;;;;;6.30;99.90;;;;;;5072446;28;19923;-52
2023/03/04 02:27:04;;;;;;;;;;;6.30;99.90;;;;;;5071790;28;19909;-53
2023/03/04 02:29:30;;;;;;;;;;;6.30;99.90;;;;;;5072576;28;19915;-52
2023/03/04 02:31:55;;;;;;;;;;;6.30;99.90;;;;;;5072220;28;20264;-53
2023/03/04 02:34:22;;;;;;;;;;;6.30;99.90;;;;;;5071294;28;20004;-51
2023/03/04 02:36:49;;;;;;;;;;;6.30;99.90;;;;;;5072365;28;19940;-52
2023/03/04 02:39:20;;;;;;;;;;;6.30;99.90;;;;;;5072434;28;19920;-51
2023/03/04 02:41:49;;;;;;;;;;;6.30;99.90;;;;;;5070756;28;19913;-53
2023/03/04 02:44:18;;;;;;;;;;;6.30;99.90;;;;;;5076403;28;20035;-54
2023/03/04 02:46:44;;;;;;;;;;;6.30;99.90;;;;;;5076362;28;19909;-51
2023/03/04 02:49:10;;;;;;;;;;;6.20;99.90;;;;;;5075396;28;19915;-52
2023/03/04 02:51:35;;;;;;;;;;;6.20;99.90;;;;;;5076015;28;20299;-50
2023/03/04 02:54:01;;;;;;;;;;;6.20;99.90;;;;;;5076376;28;19909;-48
2023/03/04 02:56:26;;;;;;;;;;;6.20;99.90;;;;;;5075527;28;19908;-52
2023/03/04 02:58:52;;;;;;;;;;;6.20;99.90;;;;;;5075782;28;19943;-50
2023/03/04 03:01:17;;;;;;;;;;;6.10;99.90;;;;;;5073376;28;19974;-52
2023/03/04 03:03:43;;;;;;;;;;;6.10;99.90;;;;;;5076052;28;19963;-48
2023/03/04 03:06:08;;;;;;;;;;;6.10;99.90;;;;;;5075791;28;19931;-55
2023/03/04 03:08:34;;;;;;;;;;;6.10;99.90;;;;;;5075096;28;19916;-50
2023/03/04 03:10:59;;;;;;;;;;;6.10;99.90;;;;;;5075952;28;19916;-51
2023/03/04 03:13:25;;;;;;;;;;;6.10;99.90;;;;;;5075680;28;19909;-50
2023/03/04 03:15:50;;;;;;;;;;;6.10;99.90;;;;;;5074990;28;19973;-49
2023/03/04 03:18:16;;;;;;;;;;;6.10;99.90;;;;;;5075282;28;19912;-52
2023/03/04 03:20:41;;;;;;;;;;;6.10;99.90;;;;;;5075665;28;19916;-52
2023/03/04 03:23:07;;;;;;;;;;;6.10;99.90;;;;;;5074814;28;19918;-52
2023/03/04 03:25:32;;;;;;;;;;;6.10;99.90;;;;;;5075649;28;20356;-52
2023/03/04 03:27:58;;;;;;;;;;;6.10;99.90;;;;;;5075127;28;19955;-55
2023/03/04 03:30:23;;;;;;;;;;;6.10;99.90;;;;;;5074934;28;19991;-51
2023/03/04 03:32:49;;;;;;;;;;;6.10;99.90;;;;;;5075768;28;19987;-49
2023/03/04 03:35:15;;;;;;;;;;;6.10;99.90;;;;;;5075431;28;20341;-51
2023/03/04 03:37:40;;;;;;;;;;;6.10;99.90;;;;;;5074176;28;20358;-54
2023/03/04 03:40:06;;;;;;;;;;;6.10;99.90;;;;;;5075546;28;19958;-51
2023/03/04 03:42:31;;;;;;;;;;;6.10;99.90;;;;;;5075336;28;19999;-51
2023/03/04 03:44:57;;;;;;;;;;;6.10;99.90;;;;;;5074567;28;19917;-50
2023/03/04 03:47:22;;;;;;;;;;;6.10;99.90;;;;;;5067088;28;19913;-53
2023/03/04 03:49:48;;;;;;;;;;;6.10;99.90;;;;;;5055198;28;19909;-54
2023/03/04 03:52:13;;;;;;;;;;;6.10;99.90;;;;;;5054543;28;20337;-51
2023/03/04 03:54:39;;;;;;;;;;;6.10;99.90;;;;;;5054382;28;19909;-51
2023/03/04 03:57:04;;;;;;;;;;;6.10;99.90;;;;;;5054780;28;19920;-48
2023/03/04 03:59:30;;;;;;;;;;;6.10;99.90;;;;;;5054063;28;19920;-50
2023/03/04 04:01:55;;;;;;;;;;;6.10;99.90;;;;;;5054931;28;19915;-53
2023/03/04 04:04:21;;;;;;;;;;;6.10;99.90;;;;;;5055007;28;19917;-51
2023/03/04 04:06:46;;;;;;;;;;;6.10;99.90;;;;;;5054177;28;19913;-52
2023/03/04 04:09:12;;;;;;;;;;;6.10;99.90;;;;;;5054841;28;19912;-49
2023/03/04 04:11:37;;;;;;;;;;;6.10;99.90;;;;;;5054122;28;20290;-51
2023/03/04 04:14:03;;;;;;;;;;;6.10;99.90;;;;;;5054695;28;19916;-51
2023/03/04 04:16:29;;;;;;;;;;;6.10;99.90;;;;;;5054639;28;19963;-51
2023/03/04 04:18:54;;;;;;;;;;;6.10;99.90;;;;;;5072825;28;19918;-50
2023/03/04 04:21:20;;;;;;;;;;;6.10;99.90;;;;;;5074549;28;19919;-51
2023/03/04 04:23:45;;;;;;;;;;;6.10;99.90;;;;;;5074472;28;19912;-51
2023/03/04 04:26:10;;;;;;;;;;;6.10;99.90;;;;;;5073669;28;20000;-51
2023/03/04 04:28:36;;;;;;;;;;;6.10;99.90;;;;;;5074002;28;19912;-49
2023/03/04 04:31:05;;;;;;;;;;;6.10;99.90;;;;;;5074370;28;20280;-51
2023/03/04 04:33:30;;;;;;;;;;;6.10;99.90;;;;;;5073765;28;20381;-52
2023/03/04 04:35:56;;;;;;;;;;;6.10;99.90;;;;;;5074248;28;19915;-52
2023/03/04 04:38:23;;;;;;;;;;;6.00;99.90;;;;;;5073826;28;19932;-50
2023/03/04 04:40:48;;;;;;;;;;;6.10;99.90;;;;;;5073337;28;20378;-52
2023/03/04 04:43:14;;;;;;;;;;;6.10;99.90;;;;;;5074002;28;19912;-50
2023/03/04 04:45:40;;;;;;;;;;;6.10;99.90;;;;;;5074161;28;20300;-51
2023/03/04 04:48:05;;;;;;;;;;;6.10;99.90;;;;;;5061583;28;20391;-51
2023/03/04 04:50:31;;;;;;;;;;;6.10;99.90;;;;;;5054162;28;19917;-50
2023/03/04 04:52:56;;;;;;;;;;;6.00;99.90;;;;;;5053810;28;19908;-54
2023/03/04 04:55:22;;;;;;;;;;;6.10;99.90;;;;;;5053514;28;20378;-52
2023/03/04 04:57:47;;;;;;;;;;;6.00;99.90;;;;;;5055095;28;19923;-51
2023/03/04 05:00:13;;;;;;;;;;;6.00;99.90;;;;;;5061519;28;19948;-52
2023/03/04 05:02:38;;;;;;;;;;;6.00;99.90;;;;;;5052931;28;20287;-50
2023/03/04 05:05:04;;;;;;;;;;;6.00;99.90;;;;;;5053321;28;20042;-54
2023/03/04 05:07:30;;;;;;;;;;;6.00;99.90;;;;;;5052828;28;20415;-48
2023/03/04 05:09:55;;;;;;;;;;;5.90;99.90;;;;;;5052724;28;19941;-53
2023/03/04 05:12:21;;;;;;;;;;;6.00;99.90;;;;;;5053542;28;20379;-51
2023/03/04 05:14:46;;;;;;;;;;;5.90;99.90;;;;;;5052719;28;19909;-51
2023/03/04 05:17:12;;;;;;;;;;;5.90;99.90;;;;;;5053437;28;19913;-51
2023/03/04 05:19:37;;;;;;;;;;;5.90;99.90;;;;;;5053400;28;20391;-51
2023/03/04 05:22:03;;;;;;;;;;;5.80;99.90;;;;;;5052487;28;19908;-51
2023/03/04 05:24:28;;;;;;;;;;;5.90;99.90;;;;;;5053316;28;19917;-50
2023/03/04 05:26:54;;;;;;;;;;;5.80;99.90;;;;;;5053049;28;19913;-49
2023/03/04 05:29:19;;;;;;;;;;;5.80;99.90;;;;;;5052555;28;19908;-52
2023/03/04 05:31:45;;;;;;;;;;;5.80;99.90;;;;;;5053299;28;19909;-52
2023/03/04 05:34:10;;;;;;;;;;;5.80;99.90;;;;;;5053347;28;20011;-53
2023/03/04 05:36:36;;;;;;;;;;;5.80;99.90;;;;;;5052647;28;20394;-52
2023/03/04 05:39:01;;;;;;;;;;;5.80;99.90;;;;;;5053308;28;19913;-51
2023/03/04 05:41:27;;;;;;;;;;;5.80;99.90;;;;;;5052986;28;19988;-51
2023/03/04 05:43:52;;;;;;;;;;;5.80;99.90;;;;;;5052771;28;19924;-54
2023/03/04 05:46:24;;;;;;;;;;;5.80;99.90;;;;;;5072926;28;20022;-49
2023/03/04 05:48:50;;;;;;;;;;;5.80;99.90;;;;;;5073100;28;20378;-50
2023/03/04 05:51:15;;;;;;;;;;;5.80;99.90;;;;;;5072139;28;20371;-50
2023/03/04 05:53:41;;;;;;;;;;;5.70;99.90;;;;;;5072523;28;19966;-51
2023/03/04 05:56:10;;;;;;;;;;;5.70;99.90;;;;;;5072822;28;19934;-50
2023/03/04 05:58:36;;;;;;;;;;;5.60;99.90;;;;;;5071971;28;20367;-49
2023/03/04 06:01:01;;;;;;;;;;;5.60;99.90;;;;;;5072693;28;19955;-51
2023/03/04 06:03:27;;;;;;;;;;;5.60;99.90;;;;;;5072488;28;19923;-52
2023/03/04 06:05:52;;;;;;;;;;;5.60;99.90;;;;;;5072140;28;19913;-52
2023/03/04 06:08:18;;;;;;;;;;;5.60;99.90;;;;;;5072625;28;20393;-50
2023/03/04 06:10:43;;;;;;;;;;;5.50;99.90;;;;;;5072703;28;19915;-51
2023/03/04 06:13:09;;;;;;;;;;;5.50;99.90;;;;;;5071279;28;19913;-50
2023/03/04 06:15:35;;;;;;;;;;;5.50;99.90;;;;;;5072254;28;20363;-52
2023/03/04 06:18:00;;;;;;;;;;;5.50;99.90;;;;;;5072113;28;19915;-58
2023/03/04 06:20:26;;;;;;;;;;;5.50;99.90;;;;;;5072116;28;19915;-51
2023/03/04 06:22:51;;;;;;;;;;;5.50;99.90;;;;;;5071967;28;19919;-50
2023/03/04 06:25:17;;;;;;;;;;;5.50;99.90;;;;;;5071625;28;19916;-52
2023/03/04 06:27:42;;;;;;;;;;;5.50;99.90;;;;;;5072635;28;19909;-52
2023/03/04 06:30:08;;;;;;;;;;;5.50;99.90;;;;;;5072488;28;19909;-51
2023/03/04 06:32:34;;;;;;;;;;;5.50;99.90;;;;;;5070242;28;19916;-52
2023/03/04 06:34:59;;;;;;;;;;;5.60;99.90;;;;;;5052387;28;19917;-52
2023/03/04 06:37:25;;;;;;;;;;;5.50;99.90;;;;;;5052513;28;19921;-51
2023/03/04 06:39:50;;;;;;;;;;;5.60;99.90;;;;;;5051527;28;19935;-51
2023/03/04 06:42:16;;;;;;;;;;;5.60;99.90;;;;;;5052601;28;19992;-52
2023/03/04 06:44:41;;;;;;;;;;;5.50;99.90;;;;;;5071051;28;19921;-52
2023/03/04 06:47:07;;;;;;;;;;;5.50;99.90;;;;;;5071522;28;20279;-50
2023/03/04 06:49:32;;;;;;;;;;;5.50;99.90;;;;;;5072367;28;20003;-51
2023/03/04 06:51:58;;;;;;;;;;;5.60;99.90;;;;;;5056207;28;19917;-51
2023/03/04 06:54:23;;;;;;;;;;;5.60;99.90;;;;;;5051498;28;19920;-51
2023/03/04 06:56:49;;;;;;;;;;;5.60;99.90;;;;;;5052525;28;19930;-49
2023/03/04 06:59:14;;;;;;;;;;;5.60;99.90;;;;;;5051922;28;19928;-48
2023/03/04 07:01:40;;;;;;;;;;;5.70;99.90;;;;;;5051412;28;19913;-49
2023/03/04 07:04:06;;;;;;;;;;;5.70;99.90;;;;;;5051961;28;20006;-51
2023/03/04 07:06:31;;;;;;;;;;;5.80;99.90;;;;;;5052241;28;19909;-50
2023/03/04 07:08:57;;;;;;;;;;;5.80;99.90;;;;;;5054802;28;19951;-51
2023/03/04 07:11:22;;;;;;;;;;;5.80;99.90;;;;;;5071939;28;20364;-50
2023/03/04 07:13:48;;;;;;;;;;;5.80;99.90;;;;;;5072636;28;19932;-51
2023/03/04 07:16:16;;;;;;;;;;;5.90;99.90;;;;;;5071337;28;19912;-52
2023/03/04 07:18:42;;;;;;;;;;;5.90;99.90;;;;;;5071813;28;19930;-52
2023/03/04 07:21:07;;;;;;;;;;;6.00;99.90;;;;;;5072241;28;20316;-51
2023/03/04 07:23:33;;;;;;;;;;;6.00;99.90;;;;;;5071221;28;19913;-51
2023/03/04 07:25:59;;;;;;;;;;;6.00;99.90;;;;;;5072183;28;19909;-50
2023/03/04 07:28:24;;;;;;;;;;;6.00;99.90;;;;;;5069514;28;19912;-54
2023/03/04 07:30:50;;;;;;;;;;;6.00;99.90;;;;;;5055271;28;19947;-50
2023/03/04 07:33:15;;;;;;;;;;;6.10;99.90;;;;;;5060608;28;20007;-51
2023/03/04 07:35:41;;;;;;;;;;;6.10;99.90;;;;;;5061669;28;19939;-51
2023/03/04 07:38:07;;;;;;;;;;;6.20;99.90;;;;;;5060029;28;19923;-51
2023/03/04 07:40:32;;;;;;;;;;;6.30;99.90;;;;;;5062225;28;19916;-52
2023/03/04 07:42:58;;;;;;;;;;;6.40;99.90;;;;;;5070415;28;19962;-51
2023/03/04 07:45:23;;;;;;;;;;;6.40;99.90;;;;;;5059218;28;20287;-51
2023/03/04 07:47:49;;;;;;;;;;;6.40;99.90;;;;;;5059985;28;19913;-53
2023/03/04 07:50:15;;;;;;;;;;;6.50;99.90;;;;;;5070188;28;19908;-51
2023/03/04 07:52:41;;;;;;;;;;;6.50;99.90;;;;;;5072643;28;19908;-51
2023/03/04 07:55:07;;;;;;;;;;;6.50;99.90;;;;;;5055129;28;19957;-53
2023/03/04 07:57:32;;;;;;;;;;;6.60;99.90;;;;;;5054337;28;20390;-52
2023/03/04 07:59:58;;;;;;;;;;;6.60;99.90;;;;;;5060969;28;20023;-52
2023/03/04 08:02:23;;;;;;;;;;;6.60;99.90;;;;;;5067632;28;20287;-51
2023/03/04 08:04:49;;;;;;;;;;;6.60;99.90;;;;;;5056118;28;19923;-52
2023/03/04 08:07:14;;;;;;;;;;;6.70;99.90;;;;;;5068720;28;19909;-49
2023/03/04 08:09:40;;;;;;;;;;;6.70;99.90;;;;;;5054764;28;20375;-52
2023/03/04 08:12:05;;;;;;;;;;;6.70;99.90;;;;;;5053888;28;19909;-51
2023/03/04 08:14:31;;;;;;;;;;;6.70;99.90;;;;;;5054811;28;19909;-51
2023/03/04 08:16:56;;;;;;;;;;;6.70;99.90;;;;;;5054578;28;20419;-50
2023/03/04 08:19:22;;;;;;;;;;;6.70;99.90;;;;;;5053876;28;19920;-51
2023/03/04 08:21:47;;;;;;;;;;;6.70;99.90;;;;;;5054626;28;20429;-52
2023/03/04 08:24:13;;;;;;;;;;;6.70;99.90;;;;;;5054298;28;19917;-52
2023/03/04 08:26:42;;;;;;;;;;;6.70;99.90;;;;;;5053688;28;19912;-53
2023/03/04 08:29:10;;;;;;;;;;;6.80;99.90;;;;;;5065492;28;19977;-52
2023/03/04 08:31:35;;;;;;;;;;;6.80;99.90;;;;;;5074346;28;19915;-51
2023/03/04 08:34:02;;;;;;;;;;;6.90;99.90;;;;;;5073462;28;19909;-51
2023/03/04 08:36:27;;;;;;;;;;;6.90;99.90;;;;;;5074174;28;19916;-51
2023/03/04 08:38:53;;;;;;;;;;;6.90;99.90;;;;;;5064068;28;19913;-50
2023/03/04 08:41:19;;;;;;;;;;;6.90;99.90;;;;;;5053770;28;19915;-51
2023/03/04 08:43:44;;;;;;;;;;;6.90;99.90;;;;;;5060964;28;19926;-54
2023/03/04 08:46:10;;;;;;;;;;;6.90;99.90;;;;;;5073730;28;19912;-49
2023/03/04 08:48:36;;;;;;;;;;;6.90;99.90;;;;;;5055719;28;19909;-52
2023/03/04 08:51:06;;;;;;;;;;;6.80;99.90;;;;;;5058743;28;20279;-52
2023/03/04 08:53:31;;;;;;;;;;;6.80;99.90;;;;;;5073380;28;19909;-50
2023/03/04 08:55:56;;;;;;;;;;;6.80;99.90;;;;;;5063929;28;19919;-52
2023/03/04 08:58:22;;;;;;;;;;;6.80;99.90;;;;;;5053782;28;20392;-50
2023/03/04 09:00:48;;;;;;;;;;;6.80;99.90;;;;;;5051852;28;19917;-47
2023/03/04 09:03:14;;;;;;;;;;;6.80;99.90;;;;;;5057798;28;20634;-52
2023/03/04 09:05:39;;;;;;;;;;;6.80;99.90;;;;;;5080151;28;19916;-51
2023/03/04 09:08:05;;;;;;;;;;;6.90;99.90;;;;;;5093075;28;19999;-52
2023/03/04 09:10:31;;;;;;;;;;;6.90;99.90;;;;;;5074781;28;20383;-51
2023/03/04 09:12:57;;;;;;;;;;;7.00;99.90;;;;;;5073467;28;20283;-54
2023/03/04 09:15:22;;;;;;;;;;;7.00;99.90;;;;;;5072705;28;19931;-50
2023/03/04 09:17:48;;;;;;;;;;;7.10;99.90;;;;;;5070144;28;19924;-54
2023/03/04 09:20:13;;;;;;;;;;;7.10;99.90;;;;;;5064154;28;20035;-51
2023/03/04 09:22:39;;;;;;;;;;;7.00;99.90;;;;;;5052750;28;20310;-51
2023/03/04 09:25:06;;;;;;;;;;;7.00;99.90;;;;;;5057635;28;20375;-50
2023/03/04 09:27:31;;;;;;;;;;;7.00;99.90;;;;;;5056801;28;19913;-51
2023/03/04 09:29:56;;;;;;;;;;;7.10;99.90;;;;;;5052484;28;19909;-52
2023/03/04 09:32:22;;;;;;;;;;;7.10;99.90;;;;;;5053223;28;19909;-52
2023/03/04 09:34:47;;;;;;;;;;;7.00;99.90;;;;;;5062435;28;19942;-51
2023/03/04 09:37:13;;;;;;;;;;;7.10;99.90;;;;;;5072415;28;20359;-51
2023/03/04 09:39:38;;;;;;;;;;;7.10;99.90;;;;;;5073104;28;19913;-54
2023/03/04 09:42:06;;;;;;;;;;;7.10;99.90;;;;;;5072058;28;20006;-52
2023/03/04 09:44:33;;;;;;;;;;;7.10;99.90;;;;;;5071718;28;20321;-51
2023/03/04 09:47:03;;;;;;;;;;;7.10;99.90;;;;;;5050569;28;19921;-51
2023/03/04 09:49:29;;;;;;;;;;;7.10;99.90;;;;;;5061779;28;19919;-51
2023/03/04 09:51:58;;;;;;;;;;;7.20;99.90;;;;;;5066367;28;19953;-51
2023/03/04 09:54:26;;;;;;;;;;;7.30;99.90;;;;;;5068056;28;19908;-53
2023/03/04 09:57:11;;;;;;;;;;;7.40;99.90;;;;;;5068475;28;20012;-52
2023/03/04 09:59:43;;;;;;;;;;;7.50;99.90;;;;;;5070732;28;19920;-53
2023/03/04 10:02:19;;;;;;;;;;;7.60;99.90;;;;;;5063961;28;19995;-52
2023/03/04 10:04:48;;;;;;;;;;;7.70;99.90;;;;;;5055301;28;19921;-55
2023/03/04 10:07:17;;;;;;;;;;;7.70;99.90;;;;;;5057582;28;20372;-52
2023/03/04 10:09:42;;;;;;;;;;;7.70;99.90;;;;;;5052584;28;19913;-53
2023/03/04 10:12:12;;;;;;;;;;;7.70;99.90;;;;;;5056585;28;20113;-53
2023/03/04 10:14:41;;;;;;;;;;;7.70;99.90;;;;;;5058375;28;19962;-53
2023/03/04 10:17:13;;;;;;;;;;;7.70;99.90;;;;;;5063640;28;20374;-53
2023/03/04 10:19:49;;;;;;;;;;;7.60;99.90;;;;;;5059926;28;19943;-53
2023/03/04 10:22:21;;;;;;;;;;;7.60;99.90;;;;;;5051774;28;19919;-51
2023/03/04 10:24:47;;;;;;;;;;;7.50;99.90;;;;;;5058281;28;19920;-52
2023/03/04 10:27:14;;;;;;;;;;;7.60;99.90;;;;;;5069038;28;19908;-52
2023/03/04 10:29:39;;;;;;;;;;;7.60;99.90;;;;;;5067130;28;19908;-53
2023/03/04 10:32:07;;;;;;;;;;;7.60;99.90;;;;;;5051635;28;19909;-54
2023/03/04 10:34:33;;;;;;;;;;;7.70;99.90;;;;;;5057901;28;19919;-51
2023/03/04 10:37:00;;;;;;;;;;;7.70;99.90;;;;;;5061297;28;19913;-51
2023/03/04 10:39:31;;;;;;;;;;;7.80;99.90;;;;;;5061666;28;19915;-53
2023/03/04 10:42:05;;;;;;;;;;;8.00;99.90;;;;;;5092634;28;20003;-52
2023/03/04 10:44:33;;;;;;;;;;;8.30;99.90;;;;;;5071658;28;19974;-53
2023/03/04 10:46:58;;;;;;;;;;;8.50;99.90;;;;;;5071723;28;20559;-54
2023/03/04 10:49:25;;;;;;;;;;;8.60;99.90;;;;;;5072457;28;19974;-53
2023/03/04 10:52:02;;;;;;;;;;;8.60;99.90;;;;;;5072285;28;20363;-54
2023/03/04 10:54:46;;;;;;;;;;;8.60;99.90;;;;;;5053973;28;19912;-51
2023/03/04 10:57:14;;;;;;;;;;;8.40;99.90;;;;;;5065632;28;19919;-54
2023/03/04 10:59:52;;;;;;;;;;;8.20;99.90;;;;;;5071349;28;19920;-52
2023/03/04 11:02:26;;;;;;;;;;;8.10;99.90;;;;;;5067065;28;19919;-53
2023/03/04 11:04:56;;;;;;;;;;;8.10;99.90;;;;;;5067458;28;20367;-53
2023/03/04 11:07:23;;;;;;;;;;;8.00;99.90;;;;;;5055284;28;20007;-51
2023/03/04 11:09:48;;;;;;;;;;;8.10;99.90;;;;;;5056280;28;19951;-53
2023/03/04 11:12:15;;;;;;;;;;;8.20;99.90;;;;;;5071470;28;19952;-52
2023/03/04 11:14:44;;;;;;;;;;;8.30;99.90;;;;;;5074601;28;19920;-53
2023/03/04 11:17:16;;;;;;;;;;;8.30;99.90;;;;;;5075674;28;19912;-54
2023/03/04 11:19:44;;;;;;;;;;;8.40;99.90;;;;;;5075817;28;20274;-51
2023/03/04 11:22:12;;;;;;;;;;;8.40;99.90;;;;;;5059154;28;19920;-54
2023/03/04 11:24:37;;;;;;;;;;;8.30;99.90;;;;;;5055945;28;19917;-52
2023/03/04 11:27:17;;;;;;;;;;;8.30;99.90;;;;;;5055887;28;19909;-54
2023/03/04 11:29:47;;;;;;;;;;;8.20;99.90;;;;;;5054889;28;19926;-52
2023/03/04 11:32:24;;;;;;;;;;;8.10;99.90;;;;;;5070736;28;20162;-53
2023/03/04 11:34:56;;;;;;;;;;;8.10;99.90;;;;;;5063165;28;19916;-53
2023/03/04 11:37:26;;;;;;;;;;;8.10;99.90;;;;;;5055703;28;20368;-53
2023/03/04 11:40:09;;;;;;;;;;;8.20;99.90;;;;;;5055616;28;19908;-53
2023/03/04 11:42:53;;;;;;;;;;;8.30;99.90;;;;;;5055599;28;20287;-54
2023/03/04 11:45:39;;;;;;;;;;;8.40;99.90;;;;;;5055181;28;19917;-52
2023/03/04 11:48:34;;;;;;;;;;;8.60;99.90;;;;;;5023939;28;20056;-53
2023/03/04 11:51:06;;;;;;;;;;;8.70;99.90;;;;;;5043080;28;20034;-53
2023/03/04 11:53:43;;;;;;;;;;;8.80;99.90;;;;;;5061136;28;19920;-53
2023/03/04 11:56:16;;;;;;;;;;;8.80;99.90;;;;;;5054454;28;19917;-53
2023/03/04 11:59:06;;;;;;;;;;;8.80;99.90;;;;;;5054843;28;19929;-53
2023/03/04 12:02:01;;;;;;;;;;;8.80;99.90;;;;;;5066819;28;19912;-53
2023/03/04 12:04:32;;;;;;;;;;;8.90;99.90;;;;;;5060838;28;19916;-53
2023/03/04 12:07:03;;;;;;;;;;;9.00;99.90;;;;;;5074821;28;19908;-54
2023/03/04 12:09:35;;;;;;;;;;;9.00;99.90;;;;;;5068314;28;19920;-49
2023/03/04 12:12:19;;;;;;;;;;;8.90;99.90;;;;;;5054168;28;19944;-53
2023/03/04 12:14:55;;;;;;;;;;;8.90;99.90;;;;;;5054510;28;19909;-52
2023/03/04 12:17:20;;;;;;;;;;;9.10;99.90;;;;;;5053979;28;19912;-54
2023/03/04 12:20:00;;;;;;;;;;;9.30;99.90;;;;;;5058757;28;19919;-57
2023/03/04 12:22:43;;;;;;;;;;;9.40;99.90;;;;;;5064269;28;19916;-54
2023/03/04 12:25:17;;;;;;;;;;;9.40;99.90;;;;;;5064702;28;19925;-52
2023/03/04 12:28:02;;;;;;;;;;;9.10;99.90;;;;;;5058753;28;19999;-58
2023/03/04 12:30:46;;;;;;;;;;;9.00;99.90;;;;;;5059839;28;20437;-55
2023/03/04 12:33:11;;;;;;;;;;;8.90;99.90;;;;;;5052770;28;19932;-53
2023/03/04 12:36:06;;;;;;;;;;;8.90;99.90;;;;;;5053184;28;20260;-54
2023/03/04 12:38:40;;;;;;;;;;;9.00;99.90;;;;;;5050764;28;19912;-53
2023/03/04 12:41:27;;;;;;;;;;;9.10;99.90;;;;;;5054031;28;19971;-53
2023/03/04 12:44:12;;;;;;;;;;;9.10;99.90;;;;;;5054103;28;19913;-52
2023/03/04 12:46:56;;;;;;;;;;;9.00;99.90;;;;;;5053263;28;19917;-53
2023/03/04 12:49:27;;;;;;;;;;;8.80;99.90;;;;;;5057312;28;19913;-54
2023/03/04 12:52:10;;;;;;;;;;;8.70;99.90;;;;;;5061987;28;19985;-51
2023/03/04 12:54:38;;;;;;;;;;;8.60;99.90;;;;;;5054685;28;20007;-53
2023/03/04 12:57:15;;;;;;;;;;;8.60;99.90;;;;;;5074032;28;19908;-56
2023/03/04 12:59:54;;;;;;;;;;;8.40;99.90;;;;;;5073048;28;19966;-51
2023/03/04 13:02:22;;;;;;;;;;;8.40;99.90;;;;;;5065206;28;19922;-55
2023/03/04 13:04:48;;;;;;;;;;;8.40;99.90;;;;;;5053831;28;19917;-53
2023/03/04 13:07:20;;;;;;;;;;;8.50;99.90;;;;;;5057289;28;19908;-53
2023/03/04 13:09:55;;;;;;;;;;;8.50;99.90;;;;;;5058565;28;19991;-56
2023/03/04 13:12:22;;;;;;;;;;;8.50;99.90;;;;;;5053642;28;19916;-51
2023/03/04 13:15:05;;;;;;;;;;;8.50;99.90;;;;;;5052922;28;20287;-55
2023/03/04 13:17:42;;;;;;;;;;;8.40;99.90;;;;;;5053497;28;19912;-55
2023/03/04 13:20:16;;;;;;;;;;;8.40;99.90;;;;;;5071561;28;19912;-54
2023/03/04 13:22:46;;;;;;;;;;;8.40;99.90;;;;;;5073730;28;19961;-54
2023/03/04 13:25:30;;;;;;;;;;;8.30;99.90;;;;;;5073249;28;19916;-55
2023/03/04 13:28:01;;;;;;;;;;;8.30;99.90;;;;;;5057545;28;19913;-53
2023/03/04 13:30:29;;;;;;;;;;;8.30;99.90;;;;;;5053085;28;19924;-56
2023/03/04 13:32:55;;;;;;;;;;;8.30;99.90;;;;;;5053259;28;19917;-53
2023/03/04 13:35:40;;;;;;;;;;;8.30;99.90;;;;;;5052582;28;19910;-54
2023/03/04 13:38:20;;;;;;;;;;;8.40;99.90;;;;;;5067122;28;19999;-53
2023/03/04 13:41:05;;;;;;;;;;;8.50;99.90;;;;;;5073164;28;20007;-54
2023/03/04 13:43:41;;;;;;;;;;;8.80;99.90;;;;;;5072391;28;20164;-53
2023/03/04 13:46:18;;;;;;;;;;;9.10;99.90;;;;;;5073069;28;20009;-53
2023/03/04 13:48:49;;;;;;;;;;;9.60;99.90;;;;;;5052646;28;20360;-54
2023/03/04 13:51:16;;;;;;;;;;;9.60;99.90;;;;;;5053145;28;19920;-56
2023/03/04 13:53:48;;;;;;;;;;;9.30;99.90;;;;;;5053247;28;19908;-55
2023/03/04 13:56:17;;;;;;;;;;;9.10;99.90;;;;;;5051898;28;19966;-53
2023/03/04 13:58:43;;;;;;;;;;;8.90;99.90;;;;;;5071836;28;19924;-54
2023/03/04 14:01:23;;;;;;;;;;;8.70;99.90;;;;;;5072772;28;19912;-53
2023/03/04 14:03:49;;;;;;;;;;;8.50;99.90;;;;;;5072180;28;19916;-57
2023/03/04 14:06:19;;;;;;;;;;;8.30;99.90;;;;;;5072689;28;19916;-52
2023/03/04 14:08:45;;;;;;;;;;;8.20;99.90;;;;;;5053890;28;19920;-53
2023/03/04 14:11:12;;;;;;;;;;;8.20;99.90;;;;;;5052188;28;19992;-53
2023/03/04 14:13:37;;;;;;;;;;;8.60;99.90;;;;;;5052762;28;19962;-53
2023/03/04 14:16:03;;;;;;;;;;;8.80;99.90;;;;;;5052538;28;19909;-55
2023/03/04 14:18:28;;;;;;;;;;;8.80;99.90;;;;;;5053063;28;19960;-54
2023/03/04 14:20:57;;;;;;;;;;;8.80;99.90;;;;;;5052847;28;19908;-54
2023/03/04 14:23:27;;;;;;;;;;;8.70;99.90;;;;;;5063066;28;19913;-56
2023/03/04 14:26:02;;;;;;;;;;;8.60;99.90;;;;;;5054659;28;19923;-56
2023/03/04 14:28:28;;;;;;;;;;;8.60;99.90;;;;;;5080270;28;19956;-53
2023/03/04 14:30:55;;;;;;;;;;;8.70;99.90;;;;;;5072037;28;19963;-56
2023/03/04 14:33:24;;;;;;;;;;;9.20;99.90;;;;;;5057635;28;19952;-53
2023/03/04 14:35:52;;;;;;;;;;;9.90;99.90;;;;;;5056780;28;19913;-53